Time;durP1;ratioP1;P1;durP2;ratioP2;P2;SDS_P1;SDS_P2;PMS_P1;PMS_P2;Temp;Humidity;BMP_temperature;BMP_pressure;BME280_temperature;BME280_humidity;BME280_pressure;Samples;Min_cycle;Max_cycle;Signal;HPM_P1;HPM_P2
2022/03/10 00:00:07;;;;;;;;;;;;;;;2.35;71.32;101575.30;1743094;82;20144;-84
2022/03/10 00:02:34;;;;;;;;;;;;;;;2.50;70.83;101583.75;1745131;82;22140;-82
2022/03/10 00:05:00;;;;;;;;;;;;;;;2.57;70.47;101580.86;1746826;82;20622;-86
2022/03/10 00:07:26;;;;;;;;;;;;;;;2.49;70.39;101587.26;1745429;81;20110;-81
2022/03/10 00:09:51;;;;;;;;;;;;;;;2.34;70.75;101590.08;1744031;82;20122;-84
2022/03/10 00:12:18;;;;;;;;;;;;;;;2.44;70.39;101587.93;1744503;82;20154;-83
2022/03/10 00:14:43;;;;;;;;;;;;;;;2.29;70.91;101589.91;1745717;81;21117;-84
2022/03/10 00:17:09;;;;;;;;;;;;;;;2.13;71.26;101590.57;1744320;82;20293;-84
2022/03/10 00:19:34;;;;;;;;;;;;;;;2.14;71.42;101597.48;1743674;82;20185;-81
2022/03/10 00:22:00;;;;;;;;;;;;;;;2.26;70.87;101596.55;1741290;82;20169;-84
2022/03/10 00:24:26;;;;;;;;;;;;;;;2.25;70.82;101597.45;1746585;82;20166;-81
2022/03/10 00:26:51;;;;;;;;;;;;;;;2.27;70.78;101599.53;1745726;82;21159;-82
2022/03/10 00:29:17;;;;;;;;;;;;;;;2.39;70.40;101596.39;1744187;82;20257;-85
2022/03/10 00:31:43;;;;;;;;;;;;;;;2.17;70.87;101611.28;1741429;82;20127;-81
2022/03/10 00:34:08;;;;;;;;;;;;;;;2.02;71.18;101601.05;1743312;82;20166;-85
2022/03/10 00:36:34;;;;;;;;;;;;;;;2.00;71.42;101610.70;1745402;81;20142;-85
2022/03/10 00:39:00;;;;;;;;;;;;;;;1.93;71.37;101608.81;1742731;82;21131;-83
2022/03/10 00:41:25;;;;;;;;;;;;;;;1.88;71.85;101610.74;1744645;82;20182;-81
2022/03/10 00:43:51;;;;;;;;;;;;;;;1.64;72.59;101616.06;1742503;81;21395;-81
2022/03/10 00:46:16;;;;;;;;;;;;;;;1.61;72.65;101614.88;1745207;82;20436;-84
2022/03/10 00:48:42;;;;;;;;;;;;;;;1.81;72.00;101623.65;1744413;81;20154;-85
2022/03/10 00:51:07;;;;;;;;;;;;;;;1.92;71.75;101622.74;1746731;82;21967;-85
2022/03/10 00:53:34;;;;;;;;;;;;;;;1.69;72.34;101629.73;1743307;82;20170;-86
2022/03/10 00:55:59;;;;;;;;;;;;;;;1.64;72.53;101631.69;1746035;82;20173;-85
2022/03/10 00:58:25;;;;;;;;;;;;;;;1.61;72.84;101637.02;1745618;82;20355;-85
2022/03/10 01:00:54;;;;;;;;;;;;;;;1.71;72.72;101638.78;1744626;82;20107;-86
2022/03/10 01:03:19;;;;;;;;;;;;;;;1.70;72.21;101641.85;1744029;82;22474;-80
2022/03/10 01:05:45;;;;;;;;;;;;;;;1.71;72.63;101647.89;1743804;81;20204;-85
2022/03/10 01:08:11;;;;;;;;;;;;;;;1.78;72.05;101651.49;1746054;82;20146;-82
2022/03/10 01:10:36;;;;;;;;;;;;;;;1.76;72.16;101647.28;1744264;82;20126;-84
2022/03/10 01:13:02;;;;;;;;;;;;;;;1.84;71.63;101652.17;1745002;82;20642;-85
2022/03/10 01:15:28;;;;;;;;;;;;;;;1.73;71.87;101657.35;1744721;80;22301;-82
2022/03/10 01:17:53;;;;;;;;;;;;;;;1.69;72.02;101655.77;1747128;80;20189;-84
2022/03/10 01:20:21;;;;;;;;;;;;;;;1.70;71.78;101654.88;1743069;81;20158;-84
2022/03/10 01:22:47;;;;;;;;;;;;;;;1.78;71.79;101662.38;1746164;82;20150;-84
2022/03/10 01:25:13;;;;;;;;;;;;;;;1.76;71.33;101662.91;1745354;81;20217;-83
2022/03/10 01:27:38;;;;;;;;;;;;;;;1.87;71.23;101667.68;1745574;81;21183;-83
2022/03/10 01:30:05;;;;;;;;;;;;;;;1.64;71.39;101663.39;1745180;82;20138;-84
2022/03/10 01:32:31;;;;;;;;;;;;;;;1.53;71.96;101672.93;1746033;80;20137;-83
2022/03/10 01:34:56;;;;;;;;;;;;;;;1.65;71.54;101669.84;1746059;82;20148;-83
2022/03/10 01:37:22;;;;;;;;;;;;;;;1.59;71.67;101676.59;1743386;81;20142;-84
2022/03/10 01:39:48;;;;;;;;;;;;;;;1.62;71.33;101675.17;1743449;81;21161;-80
2022/03/10 01:42:13;;;;;;;;;;;;;;;1.58;71.27;101681.39;1744892;82;20161;-84
2022/03/10 01:44:39;;;;;;;;;;;;;;;1.49;71.38;101687.83;1745925;81;21586;-83
2022/03/10 01:47:10;;;;;;;;;;;;;;;1.55;71.26;101690.63;1744668;80;20410;-83
2022/03/10 01:49:33;;;;;;;;;;;;;;;1.63;71.00;101691.63;1738112;82;20997;-84
2022/03/10 01:51:59;;;;;;;;;;;;;;;1.75;70.66;101690.69;1747951;80;21119;-83
2022/03/10 01:54:25;;;;;;;;;;;;;;;1.59;70.89;101694.82;1743893;82;20162;-83
2022/03/10 01:56:50;;;;;;;;;;;;;;;1.41;71.40;101697.67;1744536;82;20222;-84
2022/03/10 01:59:16;;;;;;;;;;;;;;;1.41;71.49;101705.05;1741468;81;20296;-84
2022/03/10 02:01:42;;;;;;;;;;;;;;;1.24;71.90;101708.28;1745687;81;20221;-85
2022/03/10 02:04:07;;;;;;;;;;;;;;;1.12;72.40;101708.73;1746435;82;21070;-83
2022/03/10 02:06:33;;;;;;;;;;;;;;;1.27;72.04;101713.80;1743035;80;20163;-79
2022/03/10 02:11:42;;;;;;;;;;;;;;;1.28;71.61;101726.38;1745580;82;20136;-83
2022/03/10 02:19:36;;;;;;;;;;;;;;;1.40;70.90;101733.27;1746875;82;20161;-82
2022/03/10 02:22:09;;;;;;;;;;;;;;;1.22;71.32;101737.86;1743028;82;20499;-83
2022/03/10 02:24:39;;;;;;;;;;;;;;;1.16;71.55;101744.59;1741810;82;20152;-84
2022/03/10 02:27:25;;;;;;;;;;;;;;;0.96;72.27;101746.61;1744027;82;20488;-83
2022/03/10 02:29:56;;;;;;;;;;;;;;;1.15;71.75;101740.28;1742673;81;21064;-80
2022/03/10 02:32:21;;;;;;;;;;;;;;;1.10;71.86;101744.81;1742019;81;20150;-84
2022/03/10 02:34:47;;;;;;;;;;;;;;;1.12;71.59;101748.20;1743981;82;20156;-83
2022/03/10 02:37:12;;;;;;;;;;;;;;;1.16;71.56;101755.00;1740970;82;21410;-84
2022/03/10 02:39:39;;;;;;;;;;;;;;;0.89;72.10;101753.78;1745108;82;20133;-83
2022/03/10 02:42:04;;;;;;;;;;;;;;;0.75;72.69;101757.33;1742674;82;21110;-84
2022/03/10 02:44:30;;;;;;;;;;;;;;;0.77;72.99;101758.11;1739446;82;20194;-81
2022/03/10 02:46:56;;;;;;;;;;;;;;;0.71;73.18;101763.94;1745114;82;20181;-80
2022/03/10 02:49:21;;;;;;;;;;;;;;;0.73;73.11;101766.91;1742161;82;20159;-84
2022/03/10 02:51:47;;;;;;;;;;;;;;;0.66;73.22;101768.87;1746702;82;20143;-85
2022/03/10 02:54:12;;;;;;;;;;;;;;;0.67;73.16;101771.42;1745800;82;20519;-84
2022/03/10 02:56:38;;;;;;;;;;;;;;;0.76;72.97;101778.51;1745754;82;20177;-83
2022/03/10 02:59:04;;;;;;;;;;;;;;;0.81;72.73;101783.09;1741741;82;20239;-80
2022/03/10 03:01:30;;;;;;;;;;;;;;;0.75;72.74;101788.53;1740159;81;20195;-82
2022/03/10 03:03:55;;;;;;;;;;;;;;;0.79;72.31;101787.50;1741184;82;20174;-81
2022/03/10 03:06:21;;;;;;;;;;;;;;;0.85;72.07;101787.29;1743004;82;21100;-83
2022/03/10 03:08:47;;;;;;;;;;;;;;;0.85;72.02;101793.80;1744430;81;20757;-83
2022/03/10 03:11:13;;;;;;;;;;;;;;;0.86;72.03;101796.80;1744489;81;20197;-83
2022/03/10 03:13:38;;;;;;;;;;;;;;;0.82;71.67;101804.30;1742306;81;20210;-84
2022/03/10 03:16:04;;;;;;;;;;;;;;;0.66;72.25;101800.08;1744956;82;20856;-83
2022/03/10 03:18:30;;;;;;;;;;;;;;;0.58;72.30;101801.63;1746279;81;21899;-82
2022/03/10 03:20:55;;;;;;;;;;;;;;;0.68;71.97;101809.53;1738684;82;20220;-79
2022/03/10 03:23:23;;;;;;;;;;;;;;;0.58;71.75;101810.73;1741730;82;20143;-83
2022/03/10 03:25:48;;;;;;;;;;;;;;;0.63;71.71;101816.62;1744321;82;20114;-83
2022/03/10 03:28:14;;;;;;;;;;;;;;;0.38;72.13;101817.03;1741862;82;20155;-85
2022/03/10 03:30:39;;;;;;;;;;;;;;;0.49;71.91;101818.83;1743544;82;21127;-83
2022/03/10 03:33:05;;;;;;;;;;;;;;;0.66;71.39;101828.68;1746404;82;20227;-83
2022/03/10 03:35:31;;;;;;;;;;;;;;;0.65;71.18;101831.73;1741249;82;20186;-83
2022/03/10 03:37:57;;;;;;;;;;;;;;;0.77;70.81;101837.42;1742969;82;20623;-83
2022/03/10 03:40:23;;;;;;;;;;;;;;;0.75;70.58;101833.58;1742838;82;21019;-85
2022/03/10 03:42:48;;;;;;;;;;;;;;;0.73;70.54;101834.52;1742689;81;21101;-84
2022/03/10 03:45:15;;;;;;;;;;;;;;;0.70;70.15;101836.33;1744357;82;20453;-83
2022/03/10 03:47:41;;;;;;;;;;;;;;;0.55;70.16;101832.92;1720852;82;20197;-84
2022/03/10 03:50:07;;;;;;;;;;;;;;;0.46;70.54;101846.22;1718899;82;20130;-82
2022/03/10 03:52:32;;;;;;;;;;;;;;;0.43;70.37;101846.31;1719953;82;20201;-79
2022/03/10 03:54:58;;;;;;;;;;;;;;;0.43;70.28;101845.86;1721973;82;21195;-82
2022/03/10 03:57:24;;;;;;;;;;;;;;;0.57;69.92;101851.91;1718767;83;20120;-84
2022/03/10 03:59:49;;;;;;;;;;;;;;;0.44;69.61;101851.47;1718915;83;20763;-83
2022/03/10 04:02:15;;;;;;;;;;;;;;;0.64;69.34;101850.83;1720529;81;20189;-84
2022/03/10 04:04:40;;;;;;;;;;;;;;;0.60;68.73;101850.52;1724206;81;20184;-84
2022/03/10 04:07:06;;;;;;;;;;;;;;;0.67;68.76;101852.02;1722034;82;20539;-83
2022/03/10 04:09:32;;;;;;;;;;;;;;;0.63;68.43;101856.91;1719028;83;20152;-85
2022/03/10 04:11:57;;;;;;;;;;;;;;;0.71;68.29;101867.06;1721406;82;20136;-84
2022/03/10 04:14:23;;;;;;;;;;;;;;;0.69;67.97;101867.11;1720131;83;20567;-85
2022/03/10 04:16:48;;;;;;;;;;;;;;;0.71;68.11;101869.67;1717994;82;20188;-84
2022/03/10 04:19:14;;;;;;;;;;;;;;;0.65;67.85;101874.63;1721536;81;21138;-83
2022/03/10 04:21:40;;;;;;;;;;;;;;;0.40;67.98;101884.09;1719746;82;20152;-84
2022/03/10 04:24:06;;;;;;;;;;;;;;;0.54;68.10;101883.20;1721729;82;20227;-83
2022/03/10 04:26:31;;;;;;;;;;;;;;;0.61;67.90;101881.28;1717636;83;21065;-81
2022/03/10 04:28:57;;;;;;;;;;;;;;;0.71;67.65;101890.04;1721391;83;20227;-83
2022/03/10 04:31:23;;;;;;;;;;;;;;;0.35;67.91;101888.97;1716650;83;21834;-85
2022/03/10 04:33:49;;;;;;;;;;;;;;;0.23;68.42;101891.95;1724603;82;20181;-85
2022/03/10 04:36:14;;;;;;;;;;;;;;;0.10;68.61;101897.97;1717148;81;21099;-83
2022/03/10 04:38:40;;;;;;;;;;;;;;;-0.03;69.01;101899.24;1717143;82;20189;-85
2022/03/10 04:41:06;;;;;;;;;;;;;;;0.03;68.82;101898.19;1719185;82;20169;-85
2022/03/10 04:43:32;;;;;;;;;;;;;;;0.04;68.84;101899.91;1718458;82;21332;-85
2022/03/10 04:45:59;;;;;;;;;;;;;;;-0.03;68.97;101907.03;1719771;82;20753;-85
2022/03/10 04:48:25;;;;;;;;;;;;;;;-0.10;68.96;101908.94;1718986;82;20196;-85
2022/03/10 04:50:51;;;;;;;;;;;;;;;-0.15;69.05;101910.82;1718992;82;21244;-84
2022/03/10 04:53:16;;;;;;;;;;;;;;;-0.17;69.27;101917.81;1715524;82;20128;-83
2022/03/10 04:55:42;;;;;;;;;;;;;;;-0.20;68.94;101921.80;1717902;82;21130;-85
2022/03/10 04:58:08;;;;;;;;;;;;;;;-0.20;69.11;101921.34;1719121;83;20155;-85
2022/03/10 05:00:34;;;;;;;;;;;;;;;-0.12;68.61;101921.13;1719396;83;20495;-84
2022/03/10 05:03:00;;;;;;;;;;;;;;;-0.02;68.28;101923.88;1718376;83;20171;-83
2022/03/10 05:05:25;;;;;;;;;;;;;;;-0.03;67.99;101926.05;1719391;83;20145;-83
2022/03/10 05:07:51;;;;;;;;;;;;;;;0.03;67.70;101935.39;1721213;83;21139;-83
2022/03/10 05:10:18;;;;;;;;;;;;;;;0.18;67.57;101938.84;1718647;82;20182;-83
2022/03/10 05:12:52;;;;;;;;;;;;;;;0.09;67.14;101939.58;1719859;82;20211;-83
2022/03/10 05:15:21;;;;;;;;;;;;;;;0.22;67.07;101943.53;1720504;83;20148;-82
2022/03/10 05:17:47;;;;;;;;;;;;;;;-0.08;67.17;101947.84;1721385;83;20180;-83
2022/03/10 05:20:13;;;;;;;;;;;;;;;0.16;67.17;101948.44;1720514;82;22454;-81
2022/03/10 05:22:49;;;;;;;;;;;;;;;-0.01;67.11;101958.02;1720798;82;20519;-81
2022/03/10 05:25:15;;;;;;;;;;;;;;;-0.02;66.98;101963.25;1721165;82;20109;-82
2022/03/10 05:27:41;;;;;;;;;;;;;;;0.01;67.04;101963.62;1717513;83;20808;-81
2022/03/10 05:30:07;;;;;;;;;;;;;;;-0.01;67.01;101971.00;1718855;83;20129;-83
2022/03/10 05:32:33;;;;;;;;;;;;;;;-0.04;67.12;101981.47;1720033;81;21047;-84
2022/03/10 05:35:00;;;;;;;;;;;;;;;-0.20;67.40;101986.70;1720310;82;20140;-82
2022/03/10 05:37:26;;;;;;;;;;;;;;;-0.10;67.46;101986.83;1719618;82;20181;-81
2022/03/10 05:39:51;;;;;;;;;;;;;;;0.05;67.06;101992.48;1719136;82;20175;-84
2022/03/10 05:42:17;;;;;;;;;;;;;;;-0.19;67.04;101998.77;1717617;83;20129;-82
2022/03/10 05:44:43;;;;;;;;;;;;;;;-0.13;67.31;102002.50;1719146;83;21330;-84
2022/03/10 05:47:09;;;;;;;;;;;;;;;-0.08;66.94;102011.04;1722459;82;20143;-82
2022/03/10 05:49:36;;;;;;;;;;;;;;;-0.11;66.90;102011.12;1735201;81;20112;-82
2022/03/10 05:52:02;;;;;;;;;;;;;;;-0.13;67.23;102015.48;1731552;81;20180;-82
2022/03/10 05:54:27;;;;;;;;;;;;;;;-0.02;67.10;102019.96;1736342;82;20168;-83
2022/03/10 05:56:53;;;;;;;;;;;;;;;0.13;66.60;102019.13;1734608;81;21125;-80
2022/03/10 05:59:19;;;;;;;;;;;;;;;0.02;66.37;102019.42;1733581;82;20129;-83
2022/03/10 06:01:46;;;;;;;;;;;;;;;-0.02;66.40;102023.86;1733536;82;21246;-83
2022/03/10 06:04:12;;;;;;;;;;;;;;;-0.17;66.55;102025.99;1733711;81;20149;-83
2022/03/10 06:06:37;;;;;;;;;;;;;;;-0.20;66.65;102033.44;1732766;81;20703;-84
2022/03/10 06:09:05;;;;;;;;;;;;;;;-0.11;66.66;102034.92;1735623;81;21057;-84
2022/03/10 06:11:31;;;;;;;;;;;;;;;0.15;66.19;102040.71;1731701;82;20145;-86
2022/03/10 06:13:56;;;;;;;;;;;;;;;0.11;65.77;102047.75;1729698;81;20133;-84
2022/03/10 06:16:22;;;;;;;;;;;;;;;0.17;65.10;102054.50;1734836;81;20250;-81
2022/03/10 06:18:48;;;;;;;;;;;;;;;0.21;64.97;102057.43;1734396;82;20167;-84
2022/03/10 06:21:13;;;;;;;;;;;;;;;0.34;64.91;102056.63;1734445;82;21171;-82
2022/03/10 06:23:39;;;;;;;;;;;;;;;0.23;64.59;102061.28;1735935;82;20458;-80
2022/03/10 06:26:04;;;;;;;;;;;;;;;0.21;64.35;102069.12;1734944;82;20345;-85
2022/03/10 06:28:31;;;;;;;;;;;;;;;0.24;64.01;102072.94;1735137;82;20143;-84
2022/03/10 06:30:57;;;;;;;;;;;;;;;0.26;63.29;102077.63;1731863;82;20191;-82
2022/03/10 06:33:22;;;;;;;;;;;;;;;0.21;62.57;102073.02;1726926;82;20671;-82
2022/03/10 06:35:48;;;;;;;;;;;;;;;0.41;61.75;102084.16;1736826;82;20860;-83
2022/03/10 06:38:13;;;;;;;;;;;;;;;0.55;61.61;102082.94;1735724;81;20159;-83
2022/03/10 06:40:39;;;;;;;;;;;;;;;0.54;61.08;102088.56;1732511;81;20129;-87
2022/03/10 06:43:04;;;;;;;;;;;;;;;0.56;60.16;102081.59;1733289;81;20163;-83
2022/03/10 06:45:30;;;;;;;;;;;;;;;0.51;60.28;102082.15;1731395;82;21178;-85
2022/03/10 06:47:56;;;;;;;;;;;;;;;0.67;59.98;102082.13;1736390;82;20314;-85
2022/03/10 06:50:22;;;;;;;;;;;;;;;0.68;60.12;102087.74;1736602;82;20175;-82
2022/03/10 06:52:47;;;;;;;;;;;;;;;0.70;59.62;102091.14;1739866;81;20460;-84
2022/03/10 06:55:13;;;;;;;;;;;;;;;0.79;58.90;102094.36;1740684;81;20158;-85
2022/03/10 06:57:38;;;;;;;;;;;;;;;0.78;58.50;102097.84;1741149;81;22025;-85
2022/03/10 07:00:07;;;;;;;;;;;;;;;0.91;59.07;102101.80;1736865;82;20177;-82
2022/03/10 07:02:33;;;;;;;;;;;;;;;0.88;58.59;102099.29;1738842;82;20474;-83
2022/03/10 07:04:58;;;;;;;;;;;;;;;0.89;57.98;102102.30;1739390;82;20132;-85
2022/03/10 07:07:24;;;;;;;;;;;;;;;0.95;58.09;102107.75;1737024;81;20161;-84
2022/03/10 07:09:49;;;;;;;;;;;;;;;0.88;57.88;102107.09;1743145;81;21081;-84
2022/03/10 07:12:15;;;;;;;;;;;;;;;0.84;57.95;102108.07;1739048;82;20511;-84
2022/03/10 07:14:40;;;;;;;;;;;;;;;1.08;57.88;102111.24;1738160;82;20127;-86
2022/03/10 07:17:06;;;;;;;;;;;;;;;0.90;57.17;102113.09;1741140;81;20452;-86
2022/03/10 07:19:32;;;;;;;;;;;;;;;0.89;57.16;102110.11;1737606;82;20231;-85
2022/03/10 07:21:57;;;;;;;;;;;;;;;0.97;57.17;102109.88;1738838;82;21076;-87
2022/03/10 07:24:23;;;;;;;;;;;;;;;1.17;57.54;102111.89;1738559;82;20455;-84
2022/03/10 07:26:48;;;;;;;;;;;;;;;1.29;56.63;102112.81;1737959;81;20147;-83
2022/03/10 07:29:14;;;;;;;;;;;;;;;1.33;55.87;102114.40;1740866;82;20622;-85
2022/03/10 07:31:39;;;;;;;;;;;;;;;1.46;55.54;102119.22;1741802;82;20126;-84
2022/03/10 07:34:05;;;;;;;;;;;;;;;1.41;54.61;102115.03;1741028;82;21153;-81
2022/03/10 07:36:31;;;;;;;;;;;;;;;1.43;54.43;102121.03;1742487;82;20223;-86
2022/03/10 07:38:56;;;;;;;;;;;;;;;1.47;54.43;102117.87;1740327;81;20152;-83
2022/03/10 07:41:22;;;;;;;;;;;;;;;1.61;54.49;102115.66;1745510;81;20138;-84
2022/03/10 07:43:47;;;;;;;;;;;;;;;1.69;54.53;102120.63;1740419;81;20193;-85
2022/03/10 07:46:13;;;;;;;;;;;;;;;1.79;53.95;102125.11;1738228;80;21254;-85
2022/03/10 07:48:39;;;;;;;;;;;;;;;1.81;53.95;102118.08;1739665;81;20154;-85
2022/03/10 07:51:04;;;;;;;;;;;;;;;1.71;53.38;102117.55;1735654;82;20263;-83
2022/03/10 07:53:30;;;;;;;;;;;;;;;1.95;53.79;102120.23;1740999;81;20519;-84
2022/03/10 07:55:56;;;;;;;;;;;;;;;2.11;53.00;102116.64;1739323;82;20195;-85
2022/03/10 07:58:29;;;;;;;;;;;;;;;2.10;53.02;102124.08;1741999;80;21146;-85
2022/03/10 08:00:54;;;;;;;;;;;;;;;2.01;52.85;102124.39;1736583;82;20144;-81
2022/03/10 08:03:21;;;;;;;;;;;;;;;2.05;52.42;102131.18;1735349;82;20278;-85
2022/03/10 08:05:47;;;;;;;;;;;;;;;1.78;51.47;102130.75;1736293;82;20488;-83
2022/03/10 08:08:13;;;;;;;;;;;;;;;1.84;50.96;102125.80;1735307;81;20183;-85
2022/03/10 08:10:40;;;;;;;;;;;;;;;1.96;51.08;102124.55;1739213;81;21126;-84
2022/03/10 08:13:05;;;;;;;;;;;;;;;1.96;50.72;102128.45;1737521;81;20981;-81
2022/03/10 08:15:31;;;;;;;;;;;;;;;2.08;50.29;102118.92;1739329;81;20163;-85
2022/03/10 08:17:56;;;;;;;;;;;;;;;2.18;49.85;102129.88;1739513;81;20248;-83
2022/03/10 08:20:23;;;;;;;;;;;;;;;2.22;49.01;102126.27;1684967;82;20165;-82
2022/03/10 08:22:49;;;;;;;;;;;;;;;2.07;48.79;102135.45;1739219;82;21126;-81
2022/03/10 08:25:14;;;;;;;;;;;;;;;2.17;49.03;102132.53;1738090;82;20275;-84
2022/03/10 08:27:43;;;;;;;;;;;;;;;2.22;47.89;102138.00;1737469;82;20140;-85
2022/03/10 08:30:09;;;;;;;;;;;;;;;2.31;47.97;102122.47;1736976;82;20191;-83
2022/03/10 08:32:34;;;;;;;;;;;;;;;2.47;47.70;102124.94;1738096;81;20187;-82
2022/03/10 08:35:00;;;;;;;;;;;;;;;2.53;46.82;102124.31;1738746;82;22023;-83
2022/03/10 08:37:26;;;;;;;;;;;;;;;2.73;46.24;102121.82;1737241;82;20132;-82
2022/03/10 08:39:51;;;;;;;;;;;;;;;2.79;45.86;102120.29;1738690;81;20163;-83
2022/03/10 08:42:17;;;;;;;;;;;;;;;2.66;45.30;102125.58;1737825;81;20104;-82
2022/03/10 08:44:43;;;;;;;;;;;;;;;2.62;45.05;102121.37;1739287;82;20211;-82
2022/03/10 08:47:08;;;;;;;;;;;;;;;2.83;44.80;102120.58;1739447;81;21029;-83
2022/03/10 08:49:34;;;;;;;;;;;;;;;3.05;45.70;102124.99;1736816;82;20135;-85
2022/03/10 08:51:59;;;;;;;;;;;;;;;2.95;43.80;102123.62;1735106;81;20453;-83
2022/03/10 08:54:25;;;;;;;;;;;;;;;3.11;44.95;102129.98;1739487;82;20266;-82
2022/03/10 08:56:51;;;;;;;;;;;;;;;3.09;44.02;102137.46;1734272;82;20117;-82
2022/03/10 08:59:17;;;;;;;;;;;;;;;2.85;43.43;102135.72;1740427;82;21162;-81
2022/03/10 09:01:43;;;;;;;;;;;;;;;2.76;42.89;102139.97;1738488;82;20250;-82
2022/03/10 09:04:08;;;;;;;;;;;;;;;2.76;43.00;102129.53;1736448;82;20254;-82
2022/03/10 09:06:34;;;;;;;;;;;;;;;2.91;43.93;102125.98;1740113;81;20142;-84
2022/03/10 09:09:00;;;;;;;;;;;;;;;3.02;43.72;102131.64;1738715;82;20994;-84
2022/03/10 09:11:25;;;;;;;;;;;;;;;2.92;43.74;102138.09;1738181;82;21116;-82
2022/03/10 09:13:51;;;;;;;;;;;;;;;2.72;43.24;102133.62;1738543;82;20207;-85
2022/03/10 09:16:20;;;;;;;;;;;;;;;2.73;43.71;102129.64;1737467;82;20506;-82
2022/03/10 09:18:46;;;;;;;;;;;;;;;2.88;43.63;102129.08;1740394;82;20308;-86
2022/03/10 09:21:12;;;;;;;;;;;;;;;2.84;43.40;102127.95;1739610;82;20183;-85
2022/03/10 09:23:38;;;;;;;;;;;;;;;2.85;42.77;102136.18;1738879;82;21138;-84
2022/03/10 09:26:04;;;;;;;;;;;;;;;2.90;43.16;102124.27;1739484;81;20159;-84
2022/03/10 09:28:29;;;;;;;;;;;;;;;2.78;42.87;102130.35;1739126;82;20229;-84
2022/03/10 09:30:55;;;;;;;;;;;;;;;2.64;42.19;102126.07;1741027;81;20144;-80
2022/03/10 09:33:20;;;;;;;;;;;;;;;2.65;42.74;102124.71;1738588;82;20134;-83
2022/03/10 09:35:46;;;;;;;;;;;;;;;2.85;43.04;102128.36;1737028;82;21156;-84
2022/03/10 09:38:12;;;;;;;;;;;;;;;2.78;41.65;102130.35;1736664;82;20218;-86
2022/03/10 09:40:37;;;;;;;;;;;;;;;2.77;41.15;102123.42;1735220;82;20165;-87
2022/03/10 09:43:03;;;;;;;;;;;;;;;2.70;41.21;102128.45;1739668;81;20129;-81
2022/03/10 09:45:29;;;;;;;;;;;;;;;2.96;41.52;102120.12;1739120;82;20132;-87
2022/03/10 09:47:55;;;;;;;;;;;;;;;2.96;41.52;102128.79;1740965;82;21052;-84
2022/03/10 09:50:20;;;;;;;;;;;;;;;3.00;40.63;102130.39;1740558;81;20163;-85
2022/03/10 09:52:46;;;;;;;;;;;;;;;2.94;41.31;102125.86;1738024;81;20144;-84
2022/03/10 09:55:13;;;;;;;;;;;;;;;2.90;41.21;102133.41;1740757;81;20129;-80
2022/03/10 09:57:40;;;;;;;;;;;;;;;3.03;41.64;102134.63;1744379;82;20170;-80
2022/03/10 10:00:06;;;;;;;;;;;;;;;3.10;40.57;102132.65;1738643;82;20974;-91
2022/03/10 10:02:34;;;;;;;;;;;;;;;3.17;40.42;102121.91;1742811;81;20134;-83
2022/03/10 10:05:01;;;;;;;;;;;;;;;3.20;40.86;102140.07;1707993;82;20130;-90
2022/03/10 10:07:28;;;;;;;;;;;;;;;3.21;40.46;102138.30;1737027;82;20215;-86
2022/03/10 10:09:56;;;;;;;;;;;;;;;3.13;40.13;102137.75;1704309;82;20176;-86
2022/03/10 10:12:27;;;;;;;;;;;;;;;3.43;41.00;102140.91;1740922;82;21186;-86
2022/03/10 10:14:52;;;;;;;;;;;;;;;3.56;40.45;102139.53;1741287;81;20440;-88
2022/03/10 10:17:32;;;;;;;;;;;;;;;3.69;40.38;102131.19;1739792;81;20284;-83
2022/03/10 10:19:59;;;;;;;;;;;;;;;3.68;39.21;102133.41;1739139;81;20226;-85
2022/03/10 10:22:26;;;;;;;;;;;;;;;3.63;38.42;102131.44;1740664;82;20196;-90
2022/03/10 10:24:53;;;;;;;;;;;;;;;3.84;38.10;102143.63;1741174;81;21827;-88
2022/03/10 10:27:22;;;;;;;;;;;;;;;3.91;38.59;102142.45;1734870;81;38809;-89
2022/03/10 10:29:51;;;;;;;;;;;;;;;4.27;38.88;102132.67;1739523;81;20191;-89
2022/03/10 10:32:32;;;;;;;;;;;;;;;4.31;37.54;102143.84;1737766;82;20156;-92
2022/03/10 10:35:04;;;;;;;;;;;;;;;4.21;37.51;102144.71;1739668;82;20155;-87
2022/03/10 10:37:31;;;;;;;;;;;;;;;4.19;38.21;102144.38;1733634;82;21107;-90
2022/03/10 10:39:58;;;;;;;;;;;;;;;4.16;38.23;102151.04;1739060;81;20421;-89
2022/03/10 10:42:28;;;;;;;;;;;;;;;4.07;37.31;102141.38;1738843;82;20170;-86
2022/03/10 10:44:54;;;;;;;;;;;;;;;4.18;36.61;102150.07;1741039;81;20715;-87
2022/03/10 10:47:19;;;;;;;;;;;;;;;4.24;36.26;102149.81;1743694;81;20590;-85
2022/03/10 10:49:57;;;;;;;;;;;;;;;4.14;36.02;102147.19;1720591;81;21817;-85
2022/03/10 10:52:23;;;;;;;;;;;;;;;3.88;36.34;102155.64;1720595;82;20125;-85
2022/03/10 10:54:48;;;;;;;;;;;;;;;4.08;36.92;102143.52;1659275;85;20192;-87
2022/03/10 10:57:22;;;;;;;;;;;;;;;4.30;36.49;102136.47;1662772;84;20475;-87
2022/03/10 10:59:49;;;;;;;;;;;;;;;4.27;36.77;102140.52;1666752;85;20124;-92
2022/03/10 11:02:19;;;;;;;;;;;;;;;4.33;37.33;102134.63;1666713;84;20612;-89
2022/03/10 11:04:46;;;;;;;;;;;;;;;4.30;37.10;102135.59;1666428;84;20176;-91
2022/03/10 11:07:12;;;;;;;;;;;;;;;4.44;36.98;102137.62;1700934;83;20150;-90
2022/03/10 11:09:39;;;;;;;;;;;;;;;4.29;35.69;102134.76;1700460;84;20383;-89
2022/03/10 11:12:08;;;;;;;;;;;;;;;4.25;35.73;102141.03;1700455;84;20214;-92
2022/03/10 11:14:34;;;;;;;;;;;;;;;4.42;36.09;102136.84;1701316;84;20138;-87
2022/03/10 11:16:59;;;;;;;;;;;;;;;4.43;35.94;102138.55;1702240;83;20241;-92
2022/03/10 11:19:25;;;;;;;;;;;;;;;4.49;36.36;102130.44;1703156;83;20161;-91
2022/03/10 11:22:10;;;;;;;;;;;;;;;4.35;35.62;102129.73;1696798;82;20162;-92
2022/03/10 11:24:48;;;;;;;;;;;;;;;4.56;36.02;102129.70;1698484;83;20157;-91
2022/03/10 11:27:16;;;;;;;;;;;;;;;4.65;35.28;102127.98;1695162;83;21269;-92
2022/03/10 11:29:42;;;;;;;;;;;;;;;4.79;35.57;102131.28;1701062;83;20125;-88
2022/03/10 11:32:10;;;;;;;;;;;;;;;4.76;35.11;102126.19;1699192;84;20121;-90
2022/03/10 11:34:49;;;;;;;;;;;;;;;4.67;34.88;102128.75;1702902;83;20178;-85
2022/03/10 11:37:34;;;;;;;;;;;;;;;4.68;34.72;102123.45;1699392;83;20197;-88
2022/03/10 11:40:00;;;;;;;;;;;;;;;4.49;34.42;102129.13;1695752;82;21152;-94
2022/03/10 11:42:29;;;;;;;;;;;;;;;4.66;34.71;102127.91;1700132;83;20644;-92
2022/03/10 11:45:09;;;;;;;;;;;;;;;4.74;34.92;102133.23;1697682;84;20193;-91
2022/03/10 11:47:35;;;;;;;;;;;;;;;4.51;34.61;102127.75;1704930;79;20165;-80
2022/03/10 11:50:25;;;;;;;;;;;;;;;4.71;35.01;102125.09;1725178;83;20128;-92
2022/03/10 11:52:55;;;;;;;;;;;;;;;4.62;34.53;102117.65;1726922;82;21141;-82
2022/03/10 11:55:21;;;;;;;;;;;;;;;4.81;34.99;102121.58;1722715;83;20127;-89
2022/03/10 11:57:56;;;;;;;;;;;;;;;5.00;34.28;102121.14;1722002;83;20187;-86
2022/03/10 12:00:43;;;;;;;;;;;;;;;5.27;34.33;102120.75;1720759;81;21188;-89
2022/03/10 12:03:08;;;;;;;;;;;;;;;5.30;33.76;102110.12;1719787;83;20134;-86
2022/03/10 12:05:58;;;;;;;;;;;;;;;5.30;33.23;102112.75;1721794;83;21103;-86
2022/03/10 12:08:29;;;;;;;;;;;;;;;5.28;32.81;102118.50;1720081;81;20174;-89
2022/03/10 12:10:55;;;;;;;;;;;;;;;5.24;33.38;102120.91;1725001;82;20172;-85
2022/03/10 12:13:27;;;;;;;;;;;;;;;5.45;33.33;102122.09;1719458;83;20557;-85
2022/03/10 12:15:52;;;;;;;;;;;;;;;5.35;33.21;102122.54;1720106;83;20192;-86
2022/03/10 12:18:20;;;;;;;;;;;;;;;5.30;33.55;102110.12;1724111;81;21151;-79
2022/03/10 12:20:46;;;;;;;;;;;;;;;5.23;34.33;102116.57;1724086;81;20108;-80
2022/03/10 12:23:19;;;;;;;;;;;;;;;5.47;33.11;102122.42;1724622;81;20167;-88
2022/03/10 12:25:46;;;;;;;;;;;;;;;5.53;32.51;102116.02;1718536;83;20172;-86
2022/03/10 12:28:27;;;;;;;;;;;;;;;5.47;31.89;102119.80;1724298;83;20172;-89
2022/03/10 12:31:16;;;;;;;;;;;;;;;5.61;32.46;102115.20;1724356;83;22078;-85
2022/03/10 12:33:46;;;;;;;;;;;;;;;5.70;32.37;102120.43;1725957;83;20432;-90
2022/03/10 12:36:15;;;;;;;;;;;;;;;5.65;31.45;102112.80;1725447;83;20136;-82
2022/03/10 12:38:41;;;;;;;;;;;;;;;5.60;31.65;102113.49;1722353;83;20211;-86
2022/03/10 12:41:07;;;;;;;;;;;;;;;5.56;31.24;102115.86;1724014;82;20159;-88
2022/03/10 12:43:33;;;;;;;;;;;;;;;5.49;30.92;102116.64;1722709;83;21369;-84
2022/03/10 12:46:00;;;;;;;;;;;;;;;5.64;31.46;102116.36;1724845;81;20156;-90
2022/03/10 12:48:31;;;;;;;;;;;;;;;5.65;31.11;102111.95;1718002;81;20310;-90
2022/03/10 12:50:57;;;;;;;;;;;;;;;5.55;30.67;102111.56;1713271;82;20171;-87